Time;durP1;ratioP1;P1;durP2;ratioP2;P2;SDS_P1;SDS_P2;PMS_P1;PMS_P2;Temp;Humidity;BMP_temperature;BMP_pressure;BME280_temperature;BME280_humidity;BME280_pressure;Samples;Min_cycle;Max_cycle;Signal;HPM_P1;HPM_P2
2021/08/25 00:01:13;;;;;;;7.65;3.03;;;13.60;84.60;;;;;;5099282;28;20131;-76
2021/08/25 00:03:39;;;;;;;7.13;2.40;;;13.50;84.80;;;;;;5091483;28;20040;-76
2021/08/25 00:06:04;;;;;;;5.85;2.38;;;13.40;85.00;;;;;;5094004;28;20028;-75
2021/08/25 00:08:30;;;;;;;5.43;2.33;;;13.40;85.00;;;;;;5111262;28;20032;-75
2021/08/25 00:10:56;;;;;;;4.63;1.95;;;13.40;85.20;;;;;;5094235;28;20031;-76
2021/08/25 00:13:22;;;;;;;5.40;2.70;;;13.40;85.30;;;;;;5110843;28;20130;-75
2021/08/25 00:15:47;;;;;;;3.83;2.10;;;13.30;85.50;;;;;;5093697;28;20027;-80
2021/08/25 00:18:14;;;;;;;5.45;2.22;;;13.40;85.80;;;;;;5110055;28;20077;-77
2021/08/25 00:20:40;;;;;;;5.43;2.47;;;13.40;86.20;;;;;;5111300;28;20036;-76
2021/08/25 00:23:06;;;;;;;4.25;2.20;;;13.40;85.70;;;;;;5110673;28;20039;-76
2021/08/25 00:25:33;;;;;;;4.60;2.20;;;13.40;85.70;;;;;;5111079;28;20042;-76
2021/08/25 00:27:59;;;;;;;3.92;2.40;;;13.40;85.70;;;;;;5109500;28;20047;-76
2021/08/25 00:30:25;;;;;;;4.90;2.50;;;13.40;85.70;;;;;;5109948;28;20054;-76
2021/08/25 00:32:50;;;;;;;5.68;2.75;;;13.30;85.80;;;;;;5110958;28;20067;-82
2021/08/25 00:35:16;;;;;;;5.25;2.08;;;13.20;86.00;;;;;;5110751;28;20047;-76
2021/08/25 00:37:42;;;;;;;3.67;2.63;;;13.30;86.20;;;;;;5090113;28;20040;-78
2021/08/25 00:40:08;;;;;;;5.80;2.33;;;13.20;86.10;;;;;;5090612;28;20042;-74
2021/08/25 00:42:34;;;;;;;7.55;2.75;;;13.20;86.20;;;;;;5073531;28;20483;-78
2021/08/25 00:45:02;;;;;;;4.25;2.55;;;13.10;86.40;;;;;;5090983;28;20043;-76
2021/08/25 00:47:29;;;;;;;5.18;2.30;;;13.20;86.80;;;;;;5094089;28;20024;-76
2021/08/25 00:49:55;;;;;;;4.20;2.42;;;13.20;86.80;;;;;;5077605;28;20035;-79
2021/08/25 00:52:20;;;;;;;5.80;3.00;;;13.10;86.70;;;;;;5094838;28;20032;-75
2021/08/25 00:54:46;;;;;;;5.65;2.60;;;13.00;86.60;;;;;;5094941;28;20028;-77
2021/08/25 00:57:12;;;;;;;3.75;2.33;;;13.00;86.80;;;;;;5108396;28;20482;-77
2021/08/25 00:59:38;;;;;;;4.80;2.42;;;13.00;86.90;;;;;;5097293;28;20047;-76
2021/08/25 01:02:16;;;;;;;4.50;2.25;;;13.00;87.00;;;;;;5098736;28;20553;-76
2021/08/25 01:04:52;;;;;;;3.55;2.33;;;13.10;87.30;;;;;;5093956;28;20032;-76
2021/08/25 01:07:17;;;;;;;4.25;2.50;;;13.10;87.90;;;;;;5111342;28;20066;-76
2021/08/25 01:09:43;;;;;;;7.88;2.60;;;13.10;87.40;;;;;;5080943;28;20065;-75
2021/08/25 01:12:10;;;;;;;3.78;2.25;;;13.20;87.30;;;;;;5097287;28;20032;-76
2021/08/25 01:14:38;;;;;;;3.35;2.38;;;13.20;87.30;;;;;;5115818;28;20049;-75
2021/08/25 01:17:05;;;;;;;5.80;2.70;;;13.10;87.20;;;;;;5106280;28;20081;-76
2021/08/25 01:19:51;;;;;;;4.28;2.22;;;13.10;87.20;;;;;;5115087;28;20039;-77
2021/08/25 01:22:19;;;;;;;5.87;2.17;;;13.00;87.30;;;;;;5096818;28;20114;-76
2021/08/25 01:24:47;;;;;;;3.57;2.10;;;13.00;87.20;;;;;;5105861;28;20391;-76
2021/08/25 01:27:14;;;;;;;4.90;3.03;;;12.90;87.20;;;;;;5114929;28;20016;-76
2021/08/25 01:29:42;;;;;;;4.68;2.53;;;12.80;87.40;;;;;;5114801;28;20031;-76
2021/08/25 01:32:08;;;;;;;5.70;2.63;;;12.80;87.60;;;;;;5119736;28;20025;-76
2021/08/25 01:34:54;;;;;;;5.82;2.28;;;12.70;87.70;;;;;;5120792;28;20035;-75
2021/08/25 01:37:24;;;;;;;5.80;2.40;;;12.70;88.00;;;;;;5099610;28;20286;-79
2021/08/25 01:39:51;;;;;;;10.30;2.40;;;12.80;88.10;;;;;;5101377;28;20082;-75
2021/08/25 01:42:18;;;;;;;3.20;1.88;;;12.90;87.90;;;;;;5097847;28;20028;-76
2021/08/25 01:44:44;;;;;;;4.57;2.22;;;12.90;87.60;;;;;;5095601;28;20019;-75
2021/08/25 01:47:11;;;;;;;4.75;2.55;;;12.90;87.50;;;;;;5093444;28;20120;-75
2021/08/25 01:49:36;;;;;;;4.45;2.45;;;12.80;87.50;;;;;;5109560;28;20023;-75
2021/08/25 01:52:03;;;;;;;5.90;2.60;;;12.70;87.60;;;;;;5115575;28;20370;-77
2021/08/25 01:54:29;;;;;;;3.33;2.17;;;12.60;87.70;;;;;;5094087;28;20017;-75
2021/08/25 01:56:55;;;;;;;3.45;2.10;;;12.60;87.90;;;;;;5089949;28;20057;-76
2021/08/25 01:59:21;;;;;;;5.20;2.27;;;12.60;88.20;;;;;;5093188;28;20032;-76
2021/08/25 02:01:46;;;;;;;6.13;2.55;;;12.50;88.30;;;;;;5110557;28;20475;-76
2021/08/25 02:04:12;;;;;;;6.03;2.15;;;12.60;88.40;;;;;;5110731;28;20063;-77
2021/08/25 02:06:38;;;;;;;3.90;2.43;;;12.50;88.50;;;;;;5114568;28;20023;-76
2021/08/25 02:09:04;;;;;;;3.90;2.40;;;12.50;88.60;;;;;;5113097;28;20089;-78
2021/08/25 02:11:29;;;;;;;5.70;2.73;;;12.60;88.70;;;;;;5113327;28;20020;-76
2021/08/25 02:13:55;;;;;;;5.27;2.63;;;12.60;88.40;;;;;;5113852;28;20048;-76
2021/08/25 02:16:21;;;;;;;4.07;2.60;;;12.50;88.50;;;;;;5079343;28;20042;-75
2021/08/25 02:18:47;;;;;;;4.57;2.20;;;12.40;88.50;;;;;;5096538;28;20028;-77
2021/08/25 02:21:13;;;;;;;3.87;2.37;;;12.50;88.80;;;;;;5113079;28;20140;-75
2021/08/25 02:23:39;;;;;;;3.77;2.70;;;12.40;88.70;;;;;;5096857;28;20031;-76
2021/08/25 02:26:05;;;;;;;4.37;2.33;;;12.40;88.70;;;;;;5112732;28;20069;-79
2021/08/25 02:28:31;;;;;;;5.10;2.50;;;12.30;88.90;;;;;;5108964;28;20484;-77
2021/08/25 02:30:57;;;;;;;7.70;2.73;;;12.40;89.00;;;;;;5092331;28;20067;-76
2021/08/25 02:33:23;;;;;;;6.20;2.80;;;12.30;88.90;;;;;;5093448;28;20042;-75
2021/08/25 02:35:48;;;;;;;4.50;2.40;;;12.30;89.10;;;;;;5092363;28;20024;-78
2021/08/25 02:38:14;;;;;;;4.77;2.37;;;12.30;89.20;;;;;;5093118;28;20078;-76
2021/08/25 02:40:40;;;;;;;5.77;2.60;;;12.30;89.10;;;;;;5075495;28;20033;-75
2021/08/25 02:43:06;;;;;;;3.50;2.20;;;12.30;89.00;;;;;;5098500;28;20123;-79
2021/08/25 02:45:32;;;;;;;4.27;2.60;;;12.20;89.10;;;;;;5104425;28;20111;-75
2021/08/25 02:47:58;;;;;;;5.73;2.27;;;12.20;89.30;;;;;;5093468;28;20030;-76
2021/08/25 02:50:24;;;;;;;5.70;2.93;;;12.20;89.40;;;;;;5074249;28;20463;-76
2021/08/25 02:52:49;;;;;;;5.57;2.83;;;12.20;89.30;;;;;;5074890;28;20042;-75
2021/08/25 02:55:15;;;;;;;6.07;2.70;;;12.20;89.40;;;;;;5098024;28;20035;-77
2021/08/25 02:57:41;;;;;;;4.77;2.43;;;12.10;89.40;;;;;;5111941;28;20042;-74
2021/08/25 03:00:08;;;;;;;4.50;2.73;;;12.10;89.60;;;;;;5112201;28;20036;-76
2021/08/25 03:02:33;;;;;;;5.37;2.70;;;12.10;89.60;;;;;;5111695;28;20032;-78
2021/08/25 03:04:59;;;;;;;5.73;2.03;;;12.10;89.60;;;;;;5091258;28;20097;-76
2021/08/25 03:07:25;;;;;;;4.60;2.97;;;12.10;89.90;;;;;;5090944;28;20028;-75
2021/08/25 03:09:50;;;;;;;5.90;2.30;;;12.10;89.90;;;;;;5090606;28;20039;-75
2021/08/25 03:12:16;;;;;;;4.33;2.83;;;12.10;90.00;;;;;;5090652;28;20373;-76
2021/08/25 03:14:42;;;;;;;7.30;2.33;;;12.20;90.10;;;;;;5094210;28;20023;-77
2021/08/25 03:17:09;;;;;;;5.77;2.50;;;12.20;90.10;;;;;;5112088;27;20115;-76
2021/08/25 03:19:34;;;;;;;5.47;2.70;;;12.20;90.10;;;;;;5112955;28;20557;-75
2021/08/25 03:22:00;;;;;;;4.43;2.87;;;12.20;89.90;;;;;;5112126;28;20035;-76
2021/08/25 03:24:26;;;;;;;4.70;2.37;;;12.20;89.90;;;;;;5111501;28;20016;-75
2021/08/25 03:26:51;;;;;;;5.23;2.83;;;12.20;89.90;;;;;;5094990;28;20489;-76
2021/08/25 03:29:17;;;;;;;5.30;2.50;;;12.10;90.00;;;;;;5111489;28;20448;-76
2021/08/25 03:31:42;;;;;;;5.80;2.73;;;12.10;90.00;;;;;;5112129;28;20055;-76
2021/08/25 03:34:08;;;;;;;7.03;3.00;;;12.10;90.10;;;;;;5110804;28;20032;-75
2021/08/25 03:36:34;;;;;;;5.93;3.00;;;12.00;90.10;;;;;;5109624;27;20040;-76
2021/08/25 03:38:59;;;;;;;9.50;2.83;;;12.00;90.10;;;;;;5091447;28;20032;-74
2021/08/25 03:41:25;;;;;;;5.77;3.73;;;11.90;90.10;;;;;;5089452;28;20357;-75
2021/08/25 03:43:51;;;;;;;5.37;3.23;;;11.90;90.30;;;;;;5085918;28;20036;-76
2021/08/25 03:46:16;;;;;;;9.63;3.33;;;11.80;90.30;;;;;;5127828;27;20050;-79
2021/08/25 03:48:42;;;;;;;6.33;3.20;;;11.80;90.40;;;;;;5111374;28;20777;-76
2021/08/25 03:51:08;;;;;;;6.90;3.50;;;11.80;90.40;;;;;;5094562;28;20398;-75
2021/08/25 03:53:33;;;;;;;7.50;3.53;;;11.70;90.40;;;;;;5110584;28;20471;-76
2021/08/25 03:55:59;;;;;;;8.27;3.30;;;11.70;90.50;;;;;;5077848;28;20028;-76
2021/08/25 03:58:24;;;;;;;5.97;3.40;;;11.70;90.60;;;;;;5072511;28;20047;-76
2021/08/25 04:00:52;;;;;;;6.03;3.17;;;11.70;90.60;;;;;;5072973;28;20055;-75
2021/08/25 04:03:18;;;;;;;8.30;3.47;;;11.70;90.60;;;;;;5091581;28;20032;-82
2021/08/25 04:05:44;;;;;;;6.80;3.40;;;11.70;90.60;;;;;;5105820;28;20035;-75
2021/08/25 04:08:10;;;;;;;8.07;3.80;;;11.70;90.60;;;;;;5110327;28;20379;-75
2021/08/25 04:10:38;;;;;;;7.27;3.83;;;11.70;90.60;;;;;;5109712;28;20027;-76
2021/08/25 04:13:04;;;;;;;5.60;3.40;;;11.60;90.60;;;;;;5111383;28;20399;-75
2021/08/25 04:15:29;;;;;;;6.40;3.33;;;11.60;90.70;;;;;;5110648;28;20032;-75
2021/08/25 04:17:55;;;;;;;6.70;3.50;;;11.60;90.70;;;;;;5111357;28;20808;-75
2021/08/25 04:20:21;;;;;;;6.47;4.00;;;11.60;90.80;;;;;;5094869;28;20034;-81
2021/08/25 04:22:46;;;;;;;5.53;3.13;;;11.70;90.80;;;;;;5115943;28;20136;-76
2021/08/25 04:25:12;;;;;;;4.90;3.00;;;11.80;90.90;;;;;;5115905;28;20100;-74
2021/08/25 04:27:38;;;;;;;6.50;3.50;;;11.80;90.80;;;;;;5097833;28;20134;-75
2021/08/25 04:30:04;;;;;;;6.03;3.40;;;11.80;90.70;;;;;;5116291;28;20030;-75
2021/08/25 04:32:30;;;;;;;6.77;4.03;;;11.80;90.80;;;;;;5116386;28;20058;-76
2021/08/25 04:34:56;;;;;;;5.50;3.13;;;11.80;90.80;;;;;;5114974;28;20464;-75
2021/08/25 04:37:21;;;;;;;5.40;3.90;;;11.80;90.70;;;;;;5098287;28;20038;-75
2021/08/25 04:39:47;;;;;;;6.33;4.17;;;11.80;90.70;;;;;;5115410;28;20108;-75
2021/08/25 04:42:13;;;;;;;7.40;3.97;;;11.70;90.70;;;;;;5070555;28;20464;-76
2021/08/25 04:44:38;;;;;;;7.33;4.47;;;11.70;90.80;;;;;;5095000;28;20024;-75
2021/08/25 04:47:04;;;;;;;7.70;4.40;;;11.80;90.80;;;;;;5116116;28;20028;-74
2021/08/25 04:49:30;;;;;;;6.93;4.37;;;11.80;90.80;;;;;;5098406;27;20024;-75
2021/08/25 04:51:55;;;;;;;9.57;5.00;;;11.90;90.80;;;;;;5102640;28;20365;-75
2021/08/25 04:54:21;;;;;;;6.00;4.40;;;11.90;90.70;;;;;;5101258;28;20031;-74
2021/08/25 04:56:46;;;;;;;6.20;4.53;;;12.00;90.70;;;;;;5084589;28;20052;-76
2021/08/25 04:59:12;;;;;;;9.17;4.80;;;12.30;90.50;;;;;;5101560;28;20030;-76
2021/08/25 05:01:38;;;;;;;6.30;4.10;;;12.40;90.20;;;;;;5107377;28;20425;-77
2021/08/25 05:04:03;;;;;;;6.33;3.70;;;12.60;90.00;;;;;;5126541;28;20073;-76
2021/08/25 05:06:29;;;;;;;8.27;4.10;;;12.80;89.50;;;;;;5129367;28;20044;-83
2021/08/25 05:08:57;;;;;;;8.33;4.00;;;12.80;88.70;;;;;;5111340;28;20028;-75
2021/08/25 05:11:22;;;;;;;10.40;4.90;;;12.90;88.60;;;;;;5128130;28;20020;-76
2021/08/25 05:13:48;;;;;;;5.95;3.70;;;13.20;87.60;;;;;;5128862;28;20109;-77
2021/08/25 05:16:14;;;;;;;6.75;4.88;;;13.60;86.60;;;;;;5104978;28;20027;-76
2021/08/25 05:18:41;;;;;;;8.57;4.00;;;14.10;85.40;;;;;;5115479;28;20059;-76
2021/08/25 05:21:07;;;;;;;7.60;4.55;;;14.60;83.20;;;;;;5114615;28;20355;-76
2021/08/25 05:23:33;;;;;;;9.57;4.55;;;15.00;81.00;;;;;;5114426;28;20040;-79
2021/08/25 05:25:59;;;;;;;4.57;3.53;;;15.40;79.70;;;;;;5114653;28;20050;-75
2021/08/25 05:28:25;;;;;;;6.07;4.43;;;15.70;78.80;;;;;;5115634;28;20055;-75
2021/08/25 05:30:51;;;;;;;6.15;3.90;;;16.20;77.20;;;;;;5113293;28;20036;-76
2021/08/25 05:33:16;;;;;;;6.07;3.70;;;16.50;75.60;;;;;;5092946;28;20057;-75
2021/08/25 05:35:42;;;;;;;8.15;3.50;;;16.90;74.80;;;;;;5094349;28;20388;-76
2021/08/25 05:38:07;;;;;;;6.95;3.60;;;17.30;73.20;;;;;;5095446;28;20376;-76
2021/08/25 05:40:33;;;;;;;8.13;3.38;;;17.60;72.30;;;;;;5093415;28;20028;-78
2021/08/25 05:42:59;;;;;;;4.45;3.17;;;18.10;71.00;;;;;;5099582;28;20551;-76
2021/08/25 05:45:25;;;;;;;9.07;3.50;;;18.50;69.60;;;;;;5114239;28;20426;-75
2021/08/25 05:47:52;;;;;;;6.85;3.58;;;18.50;68.70;;;;;;5113513;28;20122;-76
2021/08/25 05:50:18;;;;;;;5.75;2.88;;;18.70;68.60;;;;;;5113658;28;20031;-77
2021/08/25 05:52:44;;;;;;;6.18;3.10;;;18.80;68.00;;;;;;5114824;28;20528;-75
2021/08/25 05:55:10;;;;;;;5.43;3.00;;;19.00;67.70;;;;;;5130340;27;20058;-75
2021/08/25 05:57:41;;;;;;;6.15;3.33;;;19.20;66.70;;;;;;5113104;28;20051;-79
2021/08/25 06:00:08;;;;;;;6.25;3.53;;;19.10;66.70;;;;;;5106388;28;20061;-76
2021/08/25 06:02:33;;;;;;;4.93;3.25;;;19.20;66.50;;;;;;5092810;28;20032;-77
2021/08/25 06:04:59;;;;;;;7.07;3.70;;;18.80;66.80;;;;;;5091451;28;20040;-77
2021/08/25 06:07:24;;;;;;;6.70;3.47;;;18.60;67.50;;;;;;5092166;28;20361;-76
2021/08/25 06:09:50;;;;;;;5.20;3.45;;;18.70;68.20;;;;;;5107387;28;20621;-78
2021/08/25 06:12:16;;;;;;;7.35;4.03;;;19.10;67.40;;;;;;5111879;28;20056;-76
2021/08/25 06:14:41;;;;;;;6.68;4.25;;;19.60;65.80;;;;;;5094855;28;20031;-76
2021/08/25 06:17:07;;;;;;;7.32;3.83;;;20.20;65.30;;;;;;5112310;28;20023;-77
2021/08/25 06:19:33;;;;;;;5.70;3.75;;;21.00;63.50;;;;;;5112154;28;20023;-76
2021/08/25 06:21:58;;;;;;;4.38;3.33;;;20.80;61.70;;;;;;5078728;28;20123;-76
2021/08/25 06:24:24;;;;;;;6.47;3.60;;;20.60;62.80;;;;;;5093839;28;20142;-77
2021/08/25 06:26:50;;;;;;;8.48;5.57;;;20.10;63.40;;;;;;5113079;28;20035;-76
2021/08/25 06:29:15;;;;;;;9.93;5.45;;;19.90;64.00;;;;;;5112168;28;20108;-76
2021/08/25 06:31:41;;;;;;;7.97;4.88;;;19.90;64.40;;;;;;5113993;28;20024;-78
2021/08/25 06:34:06;;;;;;;12.63;5.25;;;19.70;64.40;;;;;;5096099;28;20836;-75
2021/08/25 06:36:32;;;;;;;11.85;6.60;;;19.50;65.00;;;;;;5114713;28;20096;-76
2021/08/25 06:38:58;;;;;;;7.90;5.07;;;19.50;65.30;;;;;;5114277;28;20034;-76
2021/08/25 06:41:24;;;;;;;6.82;5.20;;;19.60;64.60;;;;;;5078546;28;20084;-77
2021/08/25 06:43:49;;;;;;;9.57;5.30;;;19.90;64.70;;;;;;5112452;28;20039;-77
2021/08/25 06:46:16;;;;;;;6.40;4.50;;;20.40;63.20;;;;;;5095959;28;20111;-77
2021/08/25 06:48:42;;;;;;;7.50;5.00;;;20.50;62.70;;;;;;5095597;28;20028;-83
2021/08/25 06:51:08;;;;;;;6.00;3.97;;;20.70;62.70;;;;;;5112595;28;20035;-76
2021/08/25 06:53:35;;;;;;;8.75;4.57;;;21.40;61.30;;;;;;5113875;28;20425;-78
2021/08/25 06:56:00;;;;;;;7.78;4.20;;;21.40;60.40;;;;;;5111802;28;20757;-75
2021/08/25 06:58:27;;;;;;;6.03;4.28;;;21.80;60.50;;;;;;5112842;28;20026;-77
2021/08/25 07:00:56;;;;;;;5.63;4.68;;;22.20;59.30;;;;;;5112995;28;20023;-77
2021/08/25 07:03:22;;;;;;;7.88;4.72;;;22.70;59.20;;;;;;5112976;28;20066;-77
2021/08/25 07:05:48;;;;;;;7.68;4.55;;;23.30;57.70;;;;;;5113210;28;20064;-78
2021/08/25 07:08:14;;;;;;;8.82;4.63;;;24.10;56.20;;;;;;5113562;28;20413;-76
2021/08/25 07:10:40;;;;;;;5.90;4.30;;;24.80;54.10;;;;;;5095302;28;20028;-76
2021/08/25 07:13:06;;;;;;;5.97;3.58;;;25.40;53.00;;;;;;5111726;28;20039;-77
2021/08/25 07:15:32;;;;;;;7.63;3.47;;;25.80;51.70;;;;;;5113319;28;20046;-76
2021/08/25 07:17:57;;;;;;;7.20;4.03;;;25.90;49.50;;;;;;5111050;28;20562;-77
2021/08/25 07:20:23;;;;;;;8.05;5.88;;;25.60;50.90;;;;;;5110190;28;20417;-77
2021/08/25 07:22:49;;;;;;;7.50;4.85;;;25.80;50.90;;;;;;5110907;28;20381;-79
2021/08/25 07:25:15;;;;;;;5.15;4.65;;;26.30;50.80;;;;;;5110236;28;20031;-76
2021/08/25 07:27:41;;;;;;;8.00;4.18;;;26.70;49.60;;;;;;5112532;28;20097;-76
2021/08/25 07:30:08;;;;;;;9.70;4.25;;;26.40;48.10;;;;;;5111210;28;20046;-77
2021/08/25 07:32:35;;;;;;;6.45;4.20;;;26.10;49.10;;;;;;5111987;28;20102;-77
2021/08/25 07:35:01;;;;;;;5.65;3.13;;;26.20;49.30;;;;;;5109471;28;20049;-80
2021/08/25 07:37:26;;;;;;;8.77;4.20;;;26.10;48.10;;;;;;5090214;28;20043;-77
2021/08/25 07:39:52;;;;;;;7.25;4.25;;;26.10;49.80;;;;;;5089957;28;20380;-77
2021/08/25 07:42:18;;;;;;;7.70;4.35;;;26.10;48.40;;;;;;5091167;28;20036;-76
2021/08/25 07:44:43;;;;;;;8.45;4.38;;;26.00;49.20;;;;;;5104507;28;20479;-76
2021/08/25 07:47:09;;;;;;;7.25;3.80;;;26.40;48.10;;;;;;5094077;28;20546;-76
2021/08/25 07:49:35;;;;;;;7.45;3.97;;;26.30;47.80;;;;;;5101292;28;20035;-76
2021/08/25 07:52:02;;;;;;;7.88;4.30;;;26.50;49.10;;;;;;5111133;28;20027;-77
2021/08/25 07:54:27;;;;;;;6.95;4.10;;;27.20;48.40;;;;;;5094097;28;20523;-77
2021/08/25 07:56:53;;;;;;;7.53;4.00;;;27.60;46.30;;;;;;5104678;28;20116;-78
2021/08/25 07:59:19;;;;;;;6.85;4.30;;;27.70;45.40;;;;;;5109923;28;20115;-77
2021/08/25 08:01:44;;;;;;;5.30;3.90;;;27.30;46.40;;;;;;5111164;28;20117;-77
2021/08/25 08:04:10;;;;;;;7.93;4.35;;;27.50;46.90;;;;;;5111888;28;20131;-78
2021/08/25 08:06:35;;;;;;;7.35;4.70;;;27.40;45.80;;;;;;5110717;28;20063;-77
2021/08/25 08:09:01;;;;;;;6.50;4.07;;;27.10;47.00;;;;;;5110069;28;20031;-77
2021/08/25 08:11:27;;;;;;;8.40;4.65;;;27.30;47.90;;;;;;5093671;28;20055;-78
2021/08/25 08:13:53;;;;;;;9.48;4.43;;;27.90;46.40;;;;;;5111898;28;20391;-82
2021/08/25 08:16:21;;;;;;;6.40;4.30;;;27.70;45.00;;;;;;5112715;28;20173;-76
2021/08/25 08:19:01;;;;;;;10.77;4.95;;;27.20;45.20;;;;;;5127619;28;20036;-78
2021/08/25 08:21:28;;;;;;;9.15;4.55;;;26.90;46.70;;;;;;5111293;28;20030;-78
2021/08/25 08:23:54;;;;;;;7.90;4.75;;;27.10;45.80;;;;;;5112149;28;20054;-83
2021/08/25 08:26:20;;;;;;;7.90;4.10;;;27.40;46.20;;;;;;5111565;28;20024;-78
2021/08/25 08:28:45;;;;;;;8.60;4.78;;;27.40;45.20;;;;;;5111898;28;20032;-77
2021/08/25 08:31:12;;;;;;;6.75;4.25;;;27.60;45.60;;;;;;5111394;28;20088;-76
2021/08/25 08:33:39;;;;;;;6.85;3.95;;;28.10;46.10;;;;;;5112348;28;20031;-77
2021/08/25 08:36:05;;;;;;;5.80;3.88;;;28.70;45.10;;;;;;5111996;28;20039;-78
2021/08/25 08:38:32;;;;;;;5.47;3.92;;;29.10;44.10;;;;;;5112250;28;20031;-75
2021/08/25 08:40:58;;;;;;;7.03;3.85;;;29.30;44.10;;;;;;5114984;28;20051;-77
2021/08/25 08:43:23;;;;;;;6.88;3.47;;;29.50;43.70;;;;;;5108407;28;20058;-76
2021/08/25 08:45:49;;;;;;;7.20;3.80;;;29.90;43.20;;;;;;5099690;28;20028;-76
2021/08/25 08:48:16;;;;;;;6.25;3.72;;;30.20;42.10;;;;;;5099884;28;20024;-77
2021/08/25 08:50:46;;;;;;;5.20;4.03;;;30.40;41.60;;;;;;5098284;28;20028;-77
2021/08/25 08:53:13;;;;;;;7.93;4.47;;;30.50;42.30;;;;;;5098863;28;20044;-77
2021/08/25 08:55:39;;;;;;;8.20;3.97;;;30.60;40.70;;;;;;5099557;28;20043;-77
2021/08/25 08:58:05;;;;;;;6.47;3.80;;;30.10;40.50;;;;;;5092413;28;20024;-76
2021/08/25 09:00:32;;;;;;;7.10;4.00;;;30.10;41.10;;;;;;5092380;28;20135;-77
2021/08/25 09:02:58;;;;;;;5.43;3.88;;;30.20;41.30;;;;;;5090878;28;20035;-80
2021/08/25 09:05:28;;;;;;;6.07;4.10;;;29.50;40.70;;;;;;5074128;28;20111;-77
2021/08/25 09:07:57;;;;;;;5.63;3.25;;;29.00;41.60;;;;;;5076915;28;20056;-77
2021/08/25 09:10:31;;;;;;;4.85;3.28;;;29.20;42.70;;;;;;5094628;28;20020;-77
2021/08/25 09:13:11;;;;;;;7.00;4.35;;;29.90;41.20;;;;;;5101295;28;20040;-83
2021/08/25 09:15:43;;;;;;;7.00;4.38;;;30.40;40.50;;;;;;5116453;28;20019;-77
2021/08/25 09:18:12;;;;;;;6.93;4.20;;;29.60;40.00;;;;;;5114757;28;20028;-77
2021/08/25 09:20:48;;;;;;;5.88;3.78;;;28.90;40.80;;;;;;5116362;28;20484;-78
2021/08/25 09:23:26;;;;;;;4.88;3.60;;;28.40;41.40;;;;;;5117449;28;20038;-77
2021/08/25 09:25:53;;;;;;;6.28;3.65;;;29.00;41.70;;;;;;5117302;28;20032;-78
2021/08/25 09:28:34;;;;;;;5.32;3.72;;;29.80;40.00;;;;;;5116152;28;20035;-77
2021/08/25 09:31:03;;;;;;;5.13;3.30;;;29.80;39.40;;;;;;5115337;28;20482;-81
2021/08/25 09:33:43;;;;;;;3.83;3.42;;;29.40;39.20;;;;;;5115883;28;20027;-77
2021/08/25 09:36:19;;;;;;;7.15;3.67;;;29.10;40.30;;;;;;5115990;28;20024;-75
2021/08/25 09:38:56;;;;;;;5.53;3.95;;;29.20;40.10;;;;;;5116761;28;20114;-76
2021/08/25 09:41:22;;;;;;;6.97;3.85;;;28.80;39.60;;;;;;5115716;27;20020;-77
2021/08/25 09:43:50;;;;;;;6.32;4.15;;;28.20;41.20;;;;;;5114182;28;20482;-77
2021/08/25 09:46:20;;;;;;;4.22;3.35;;;28.20;42.90;;;;;;5115898;28;20015;-76
2021/08/25 09:48:48;;;;;;;4.80;3.58;;;28.80;41.80;;;;;;5097015;28;20030;-77
2021/08/25 09:51:17;;;;;;;4.55;3.35;;;28.90;38.50;;;;;;5112398;28;20090;-77
2021/08/25 09:53:46;;;;;;;4.28;2.80;;;28.50;39.70;;;;;;5112944;28;20054;-79
2021/08/25 09:56:39;;;;;;;3.50;2.75;;;28.50;41.10;;;;;;5113074;28;20055;-76
2021/08/25 09:59:08;;;;;;;4.22;3.55;;;28.90;38.70;;;;;;5126678;27;20036;-78
2021/08/25 10:01:35;;;;;;;3.60;2.80;;;28.80;38.70;;;;;;5113282;28;20065;-77
2021/08/25 10:04:04;;;;;;;3.88;2.58;;;29.20;40.10;;;;;;5096399;28;20124;-78
2021/08/25 10:06:30;;;;;;;4.32;2.70;;;29.70;39.10;;;;;;5112964;28;20036;-78
2021/08/25 10:08:57;;;;;;;4.82;2.90;;;30.20;38.30;;;;;;5112734;28;20453;-78
2021/08/25 10:11:29;;;;;;;3.70;2.92;;;30.60;37.80;;;;;;5113725;28;20088;-76
2021/08/25 10:13:55;;;;;;;;;;;30.50;37.00;;;;;;5113918;28;20074;-77
2021/08/25 10:16:38;;;;;;;3.72;2.80;;;30.90;37.20;;;;;;5114011;28;19956;-78
2021/08/25 10:19:36;;;;;;;3.42;2.85;;;30.60;36.30;;;;;;5112891;28;20026;-78
2021/08/25 10:22:14;;;;;;;4.55;2.45;;;30.10;36.40;;;;;;5112643;28;20084;-77
2021/08/25 10:24:55;;;;;;;3.20;2.22;;;29.40;37.80;;;;;;5112683;28;20479;-77
2021/08/25 10:27:23;;;;;;;2.75;2.25;;;29.20;38.20;;;;;;5111598;28;20364;-78
2021/08/25 10:30:01;;;;;;;3.13;1.73;;;29.60;36.80;;;;;;5095309;28;20028;-78
2021/08/25 10:32:27;;;;;;;4.15;2.55;;;29.40;36.70;;;;;;5112886;28;20024;-77
2021/08/25 10:35:30;;;;;;;3.50;2.17;;;29.50;36.80;;;;;;5112288;28;20035;-78
2021/08/25 10:38:31;;;;;;;4.55;2.25;;;29.90;37.90;;;;;;5112161;28;20023;-77
2021/08/25 10:41:18;;;;;;;3.05;2.40;;;30.10;35.40;;;;;;5033319;28;20025;-78
2021/08/25 10:43:44;;;;;;;2.58;1.83;;;29.70;34.90;;;;;;5103814;28;20070;-79
2021/08/25 10:46:13;;;;;;;3.42;2.20;;;29.60;37.20;;;;;;5111755;28;20024;-82
2021/08/25 10:48:47;;;;;;;3.92;1.60;;;30.10;36.70;;;;;;5094327;28;20115;-79
2021/08/25 10:51:33;;;;;;;2.05;1.30;;;30.20;35.20;;;;;;5112347;28;20046;-82
2021/08/25 10:54:01;;;;;;;3.20;1.77;;;30.60;36.00;;;;;;5111223;28;20860;-78
2021/08/25 10:56:31;;;;;;;4.55;1.83;;;31.00;34.10;;;;;;5110907;28;20031;-78
2021/08/25 10:59:02;;;;;;;2.67;1.73;;;31.00;34.30;;;;;;5111956;28;20116;-79
2021/08/25 11:01:42;;;;;;;3.97;1.88;;;31.30;34.80;;;;;;5112418;28;20093;-78
2021/08/25 11:04:19;;;;;;;4.40;2.33;;;30.40;35.00;;;;;;5111421;28;20035;-77
2021/08/25 11:06:58;;;;;;;3.00;1.67;;;29.50;34.70;;;;;;5112433;28;20012;-78
2021/08/25 11:09:31;;;;;;;2.53;2.00;;;28.90;36.90;;;;;;5095399;28;20056;-77
2021/08/25 11:12:04;;;;;;;3.22;2.50;;;29.10;36.10;;;;;;5111294;28;20158;-78
2021/08/25 11:14:33;;;;;;;4.43;2.80;;;29.00;36.10;;;;;;5109236;28;20376;-79
2021/08/25 11:17:07;;;;;;;4.55;2.10;;;28.60;37.00;;;;;;5111976;28;20110;-80
2021/08/25 11:19:49;;;;;;;4.15;2.20;;;28.50;38.40;;;;;;5098265;28;20016;-79
2021/08/25 11:22:23;;;;;;;3.50;1.90;;;28.50;37.30;;;;;;5091064;28;20030;-80
2021/08/25 11:25:01;;;;;;;4.43;2.08;;;28.70;39.00;;;;;;5091415;28;20024;-78
2021/08/25 11:27:43;;;;;;;4.18;2.40;;;29.30;38.10;;;;;;5110738;28;20038;-78
2021/08/25 11:30:10;;;;;;;4.25;2.15;;;29.90;37.10;;;;;;5110958;28;20106;-77
2021/08/25 11:32:59;;;;;;;3.88;2.50;;;30.00;37.30;;;;;;5110357;28;20095;-78
2021/08/25 11:35:32;;;;;;;3.75;2.17;;;29.40;36.20;;;;;;5111265;28;20044;-77
2021/08/25 11:38:01;;;;;;;3.35;2.47;;;29.20;39.30;;;;;;5111904;28;20027;-77
2021/08/25 11:40:29;;;;;;;2.95;2.03;;;29.50;37.50;;;;;;5112858;28;20375;-78
2021/08/25 11:42:54;;;;;;;4.57;2.30;;;29.80;37.40;;;;;;5102115;28;20031;-78
2021/08/25 11:45:21;;;;;;;3.67;2.53;;;29.80;37.50;;;;;;5109743;28;20032;-80
2021/08/25 11:47:52;;;;;;;3.63;2.53;;;29.60;35.60;;;;;;5110576;28;20015;-79
2021/08/25 11:50:20;;;;;;;3.22;2.08;;;29.30;36.20;;;;;;5110485;28;20044;-80
2021/08/25 11:52:47;;;;;;;3.47;1.85;;;29.10;36.90;;;;;;5110482;28;20527;-78
2021/08/25 11:55:13;;;;;;;3.20;1.90;;;29.40;37.00;;;;;;5111471;28;20024;-77
2021/08/25 11:57:56;;;;;;;3.10;2.10;;;29.60;36.70;;;;;;5092883;28;20450;-79
2021/08/25 12:00:39;;;;;;;3.67;1.63;;;29.90;36.60;;;;;;5110313;28;20020;-80
2021/08/25 12:03:08;;;;;;;3.58;2.17;;;30.10;36.40;;;;;;5093036;28;20024;-77
2021/08/25 12:05:40;;;;;;;3.80;1.92;;;29.90;35.50;;;;;;5109531;28;20088;-79
2021/08/25 12:08:24;;;;;;;3.10;1.90;;;29.30;38.60;;;;;;5110204;28;20031;-79
2021/08/25 12:11:03;;;;;;;3.05;2.13;;;29.30;38.20;;;;;;5109712;28;20528;-77
2021/08/25 12:13:30;;;;;;;3.13;2.22;;;29.40;38.00;;;;;;5110379;28;20126;-78
2021/08/25 12:15:57;;;;;;;4.40;1.98;;;29.30;36.40;;;;;;5110494;28;20474;-78
2021/08/25 12:18:26;;;;;;;3.72;1.95;;;28.90;37.30;;;;;;5092795;28;20035;-81
2021/08/25 12:21:06;;;;;;;3.60;2.42;;;28.80;39.00;;;;;;5109731;28;20026;-79
2021/08/25 12:23:32;;;;;;;3.20;2.28;;;29.00;38.00;;;;;;5108969;28;20063;-78
2021/08/25 12:25:58;;;;;;;3.53;2.03;;;28.90;38.10;;;;;;5109856;28;20062;-78
2021/08/25 12:28:35;;;;;;;4.32;2.60;;;29.00;39.10;;;;;;5092748;28;20039;-82
2021/08/25 12:31:21;;;;;;;3.13;2.20;;;29.00;38.40;;;;;;5109279;28;20031;-78
2021/08/25 12:34:12;;;;;;;4.47;2.78;;;29.20;39.00;;;;;;5108941;28;20486;-78
2021/08/25 12:36:42;;;;;;;4.40;2.78;;;29.20;38.10;;;;;;5110317;28;20540;-79
2021/08/25 12:39:10;;;;;;;3.67;2.75;;;29.10;37.50;;;;;;5111081;28;20046;-78
2021/08/25 12:41:44;;;;;;;4.07;2.60;;;29.00;38.60;;;;;;5110795;28;20122;-80
2021/08/25 12:44:10;;;;;;;4.93;2.75;;;29.00;38.80;;;;;;5113885;28;20046;-79
2021/08/25 12:46:51;;;;;;;4.13;2.70;;;29.00;39.30;;;;;;5095651;28;20437;-79
2021/08/25 12:49:17;;;;;;;5.78;2.70;;;29.00;39.30;;;;;;5114387;28;20066;-77
2021/08/25 12:51:43;;;;;;;3.28;2.30;;;28.90;39.30;;;;;;5095663;28;20483;-78
2021/08/25 12:54:09;;;;;;;4.00;2.80;;;28.70;38.80;;;;;;5113971;28;20034;-78